Vremea mâine în Cajvana - Romania

Vrei sa afli care e starea vremii acum in Suceava - Romania? Dorim sa iti furnizam starea vremii pentru Suceava - Romania. Starea vremii Suceava - Romania pentru astazi.

Vremea mâine în Cajvana

Temperatura minimă:
11 °C

Temperatura maximă:
22.9 °C

Mâine va fi: Senin
Precipitații: 0 %
Umiditate: 60%
Viteza maximă vânt mâine:
24.5 km/h

Evoluția vremii in Cajvana pe ore mâine

Ora: 03:00
Temperatura: °C
Sansa de precipitatii: %
Ora Descriere Temp Se simte Precipitatii Umiditate Vant
00:00Senin13.3°13°0%64%SSW 6.8 KM/H
01:00Senin12.7°12.5°0%65%SSW 6.5 KM/H
02:00Senin12.3°12.1°0%67%SSW 6.1 KM/H
03:00Senin12°11.7°0%68%SSW 6.1 KM/H
04:00Senin11.6°11.3°0%70%SW 6.1 KM/H
05:00Senin11.3°11°0%73%SW 5.8 KM/H
06:00Senin11°10.9°0%75%SW 5 KM/H
07:00Senin12.6°12.8°0%74%SSW 4.7 KM/H
08:00Senin14.8°15.2°0%67%S 5 KM/H
09:00Senin17.1°17.1°0%61%S 7.6 KM/H
10:00Senin19.2°19.2°0%56%SSE 11.9 KM/H
11:00Senin21.1°21.1°0%48%SSE 17.3 KM/H
12:00Senin22.1°24.2°0%43%SSE 20.2 KM/H
13:00Senin22.5°24.2°0%41%SSE 19.8 KM/H
14:00Senin22.7°24.3°0%41%SE 20.5 KM/H
15:00Senin22.9°24.3°0%39%SE 24.1 KM/H
16:00Senin22.7°24.2°0%39%SSE 24.5 KM/H
17:00Thundery outbreaks in nearby22.1°24.3°0%46%SSW 20.5 KM/H
18:00Patchy rain nearby18.5°18.5°76%57%SSW 13.7 KM/H
19:00Senin18.4°18.4°0%63%SSE 11.2 KM/H
20:00Senin16.8°16.8°0%69%S 10.8 KM/H
21:00Senin15.3°15.3°0%70%SSE 12.2 KM/H
22:00Senin14.1°13.4°0%73%S 11.2 KM/H
23:00Senin13.5°12.8°0%77%S 9.7 KM/H




tutorials